Royal Lakes, Illinois
Current Conditions -  °F | °C
As of 3:50 PM on Friday 28 Nov 2014 (Local Time) from KALN Reporting Station
Broken Clouds Broken Clouds  
Wind Chill: 41°   Ceiling: 15000
Heat Index: 46°   Visibility: 10mi
Dew Point: 32°   Wind: 13mph
Humidity: 57%   Direction: 160°SSE
Pressure: 29.96"   Gusts: 21mph
Location:  39.138°N, 90.0562°W
Report Text: KALN 282150Z 16011G18KT 10SM BKN150 08/00 A2996
Loading
Personal Weather Stations






























Interactive Weather Map New forecast layout! Learn more

10-Day Weather Forecast

Advertisements
Track Severe Weather on mobile